createdAt,value
2019-03-17T00:01:26.660Z,97760.28
2019-03-17T00:03:58.330Z,97761.90
2019-03-17T00:06:29.135Z,97757.31
2019-03-17T00:08:59.337Z,97749.64
2019-03-17T00:11:30.203Z,97754.50
2019-03-17T00:14:01.398Z,97754.48
2019-03-17T00:16:33.223Z,97745.48
2019-03-17T00:19:04.381Z,97743.25
2019-03-17T00:21:35.025Z,97741.34
2019-03-17T00:24:05.765Z,97740.53
2019-03-17T00:26:37.849Z,97744.02
2019-03-17T00:29:08.519Z,97734.27
2019-03-17T00:31:39.518Z,97737.20
2019-03-17T00:34:10.566Z,97730.11
2019-03-17T00:36:41.863Z,97728.23
2019-03-17T00:39:12.708Z,97730.20
2019-03-17T00:41:43.871Z,97724.63
2019-03-17T00:44:15.191Z,97718.86
2019-03-17T00:46:45.934Z,97725.53
2019-03-17T00:49:16.907Z,97712.20
2019-03-17T00:51:47.713Z,97714.00
2019-03-17T00:54:18.130Z,97713.46
2019-03-17T00:56:48.896Z,97706.02
2019-03-17T00:59:20.030Z,97706.84
2019-03-17T01:01:50.617Z,97698.31
2019-03-17T01:04:20.723Z,97698.78
2019-03-17T01:06:51.731Z,97698.56
2019-03-17T01:09:22.371Z,97689.70
2019-03-17T01:11:52.656Z,97681.76
2019-03-17T01:14:23.420Z,97676.55
2019-03-17T01:16:53.895Z,97670.63
2019-03-17T01:19:24.567Z,97664.47
2019-03-17T01:21:55.087Z,97655.33
2019-03-17T01:24:29.121Z,97651.39
2019-03-17T01:26:59.861Z,97649.61
2019-03-17T01:29:30.749Z,97647.70
2019-03-17T01:32:01.525Z,97640.45
2019-03-17T01:34:32.468Z,97638.30
2019-03-17T01:37:03.432Z,97628.63
2019-03-17T01:39:34.349Z,97626.50
2019-03-17T01:42:04.992Z,97625.09
2019-03-17T01:44:35.954Z,97619.19
2019-03-17T01:47:06.358Z,97616.46
2019-03-17T01:49:36.998Z,97613.45
2019-03-17T01:52:07.571Z,97608.20
2019-03-17T01:54:38.691Z,97613.19
2019-03-17T01:57:09.215Z,97607.94
2019-03-17T01:59:40.722Z,97601.70
2019-03-17T02:02:11.778Z,97605.66
2019-03-17T02:04:43.064Z,97601.14
2019-03-17T02:07:14.664Z,97602.59
2019-03-17T02:09:45.427Z,97595.70
2019-03-17T02:12:16.366Z,97592.03
2019-03-17T02:14:47.921Z,97586.61
2019-03-17T02:17:19.566Z,97584.80
2019-03-17T02:19:50.169Z,97577.63
2019-03-17T02:22:22.267Z,97578.58
2019-03-17T02:24:52.685Z,97583.80
2019-03-17T02:27:23.061Z,97579.96
2019-03-17T02:29:53.895Z,97578.06
2019-03-17T02:32:24.524Z,97583.41
2019-03-17T02:34:54.959Z,97579.63
2019-03-17T02:37:25.523Z,97575.41
2019-03-17T02:39:55.991Z,97578.38
2019-03-17T02:42:26.585Z,97572.22
2019-03-17T02:44:56.971Z,97577.81
2019-03-17T02:47:28.111Z,97571.31
2019-03-17T02:49:58.708Z,97572.48
2019-03-17T02:52:29.240Z,97574.94
2019-03-17T02:54:59.804Z,97562.94
2019-03-17T02:57:30.616Z,97565.78
2019-03-17T03:00:01.185Z,97568.99
2019-03-17T03:02:32.092Z,97566.48
2019-03-17T03:05:05.142Z,97563.95
2019-03-17T03:07:35.742Z,97563.12
2019-03-17T03:10:06.705Z,97563.82
2019-03-17T03:12:38.456Z,97548.56
2019-03-17T03:15:09.420Z,97547.96
2019-03-17T03:17:41.090Z,97556.30
2019-03-17T03:20:12.739Z,97558.00
2019-03-17T03:22:43.740Z,97554.45
2019-03-17T03:25:15.286Z,97546.19
2019-03-17T03:27:46.330Z,97535.04
2019-03-17T03:30:18.139Z,97540.70
2019-03-17T03:32:48.922Z,97530.79
2019-03-17T03:35:20.053Z,97507.70
2019-03-17T03:37:50.770Z,97511.75
2019-03-17T03:40:21.201Z,97508.20
2019-03-17T03:42:51.715Z,97513.05
2019-03-17T03:45:22.669Z,97511.14
2019-03-17T03:47:53.292Z,97517.06
2019-03-17T03:50:23.967Z,97507.13
2019-03-17T03:52:54.442Z,97508.77
2019-03-17T03:55:25.046Z,97504.62
2019-03-17T03:57:55.537Z,97513.20
2019-03-17T04:00:25.969Z,97508.78
2019-03-17T04:02:56.375Z,97518.45
2019-03-17T04:05:27.094Z,97520.98
2019-03-17T04:07:57.121Z,97510.33
2019-03-17T04:10:27.822Z,97508.87
2019-03-17T04:12:58.391Z,97509.91
2019-03-17T04:15:29.070Z,97502.97
2019-03-17T04:17:59.474Z,97501.41
2019-03-17T04:20:30.345Z,97497.84
2019-03-17T04:23:01.074Z,97489.05
2019-03-17T04:25:31.679Z,97486.97
2019-03-17T04:28:02.717Z,97485.34
2019-03-17T04:30:34.155Z,97483.08
2019-03-17T04:33:04.677Z,97484.52
2019-03-17T04:35:35.365Z,97482.03
2019-03-17T04:38:05.848Z,97484.27
2019-03-17T04:40:36.751Z,97482.68
2019-03-17T04:43:07.342Z,97486.44
2019-03-17T04:45:38.227Z,97480.66
2019-03-17T04:48:08.975Z,97482.59
2019-03-17T04:50:39.883Z,97480.59
2019-03-17T04:53:11.143Z,97486.36
2019-03-17T04:55:42.329Z,97484.86
2019-03-17T04:58:13.606Z,97487.64
2019-03-17T05:00:44.631Z,97488.78
2019-03-17T05:03:15.878Z,97492.05
2019-03-17T05:05:46.569Z,97496.73
2019-03-17T05:08:18.051Z,97500.52
2019-03-17T05:10:48.538Z,97507.57
2019-03-17T05:13:19.541Z,97508.95
2019-03-17T05:15:50.112Z,97510.90
2019-03-17T05:18:20.877Z,97511.92
2019-03-17T05:20:51.496Z,97507.23
2019-03-17T05:23:21.681Z,97509.22
2019-03-17T05:25:52.246Z,97503.91
2019-03-17T05:28:23.254Z,97509.37
2019-03-17T05:30:53.736Z,97499.52
2019-03-17T05:33:24.634Z,97509.75
2019-03-17T05:35:55.074Z,97498.00
2019-03-17T05:38:25.760Z,97493.07
2019-03-17T05:40:56.713Z,97495.05
2019-03-17T05:43:27.514Z,97488.67
2019-03-17T05:45:58.047Z,97483.16
2019-03-17T05:48:28.880Z,97475.88
2019-03-17T05:51:01.257Z,97475.32
2019-03-17T05:53:32.046Z,97479.81
2019-03-17T05:56:02.885Z,97477.50
2019-03-17T05:58:33.797Z,97477.25
2019-03-17T06:01:04.418Z,97489.82
2019-03-17T06:03:35.213Z,97489.82
2019-03-17T06:06:06.123Z,97491.02
2019-03-17T06:08:36.667Z,97495.17
2019-03-17T06:11:07.845Z,97495.52
2019-03-17T06:13:39.591Z,97492.08
2019-03-17T06:16:13.484Z,97496.48
2019-03-17T06:18:44.768Z,97494.80
2019-03-17T06:21:15.633Z,97498.84
2019-03-17T06:23:46.342Z,97500.50
2019-03-17T06:26:17.866Z,97501.09
2019-03-17T06:28:49.577Z,97502.39
2019-03-17T06:31:20.584Z,97506.97
2019-03-17T06:33:51.190Z,97509.95
2019-03-17T06:36:21.658Z,97513.73
2019-03-17T06:38:52.058Z,97514.67
2019-03-17T06:41:22.580Z,97516.84
2019-03-17T06:43:53.028Z,97516.90
2019-03-17T06:46:23.549Z,97507.95
2019-03-17T06:48:54.388Z,97518.77
2019-03-17T06:51:25.561Z,97523.31
2019-03-17T06:53:56.871Z,97526.41
2019-03-17T06:56:27.434Z,97528.31
2019-03-17T06:58:57.883Z,97532.55
2019-03-17T07:01:28.247Z,97525.92
2019-03-17T07:03:58.504Z,97530.91
2019-03-17T07:06:29.884Z,97533.13
2019-03-17T07:09:00.326Z,97525.45
2019-03-17T07:11:30.941Z,97528.62
2019-03-17T07:14:01.572Z,97528.59
2019-03-17T07:16:32.849Z,97532.88
2019-03-17T07:19:03.297Z,97535.18
2019-03-17T07:21:34.074Z,97542.86
2019-03-17T07:24:04.581Z,97540.47
2019-03-17T07:26:35.019Z,97538.29
2019-03-17T07:29:05.638Z,97540.92
2019-03-17T07:31:36.307Z,97542.97
2019-03-17T07:34:07.236Z,97544.13
2019-03-17T07:36:37.536Z,97540.25
2019-03-17T07:39:11.971Z,97549.65
2019-03-17T07:41:42.114Z,97553.05
2019-03-17T07:44:13.427Z,97542.46
2019-03-17T07:46:44.382Z,97543.72
2019-03-17T07:49:15.469Z,97541.30
2019-03-17T07:51:45.991Z,97545.73
2019-03-17T07:54:16.799Z,97539.63
2019-03-17T07:56:48.297Z,97534.91
2019-03-17T07:59:19.193Z,97531.56
2019-03-17T08:01:49.813Z,97523.34
2019-03-17T08:04:20.394Z,97525.08
2019-03-17T08:06:51.016Z,97530.80
2019-03-17T08:09:21.785Z,97525.02
2019-03-17T08:11:52.213Z,97516.59
2019-03-17T08:14:22.968Z,97510.28
2019-03-17T08:16:53.797Z,97513.78
2019-03-17T08:19:24.790Z,97507.02
2019-03-17T08:21:55.452Z,97512.87
2019-03-17T08:24:26.400Z,97508.14
2019-03-17T08:26:58.138Z,97507.56
2019-03-17T08:29:30.272Z,97505.45
2019-03-17T08:32:01.202Z,97507.17
2019-03-17T08:34:32.096Z,97504.73
2019-03-17T08:37:02.488Z,97503.28
2019-03-17T08:39:34.128Z,97500.03
2019-03-17T08:42:04.559Z,97498.41
2019-03-17T08:44:35.249Z,97497.92
2019-03-17T08:47:05.896Z,97495.30
2019-03-17T08:49:36.289Z,97500.37
2019-03-17T08:52:06.956Z,97495.09
2019-03-17T08:54:37.554Z,97502.66
2019-03-17T08:57:07.952Z,97503.14
2019-03-17T08:59:38.659Z,97504.63
2019-03-17T09:02:08.901Z,97503.14
2019-03-17T09:04:39.317Z,97497.02
2019-03-17T09:07:09.822Z,97494.50
2019-03-17T09:09:40.262Z,97494.45
2019-03-17T09:12:09.485Z,97488.13
2019-03-17T09:14:38.659Z,97494.98
2019-03-17T09:17:14.303Z,97490.89
2019-03-17T09:19:38.877Z,97488.95
2019-03-17T09:22:08.195Z,97483.48
2019-03-17T09:24:37.379Z,97483.31
2019-03-17T09:27:06.628Z,97483.53
2019-03-17T09:29:36.011Z,97487.14
2019-03-17T09:32:05.219Z,97496.53
2019-03-17T09:34:34.374Z,97496.30
2019-03-17T09:37:03.543Z,97490.05
2019-03-17T09:39:32.699Z,97495.16
2019-03-17T09:42:01.893Z,97484.75
2019-03-17T09:44:31.281Z,97472.22
2019-03-17T09:47:00.624Z,97484.28
2019-03-17T09:49:30.048Z,97486.78
2019-03-17T09:51:59.304Z,97477.91
2019-03-17T09:54:29.339Z,97479.54
2019-03-17T09:56:58.748Z,97483.36
2019-03-17T09:59:28.478Z,97471.35
2019-03-17T10:01:57.828Z,97483.42
2019-03-17T10:04:27.165Z,97476.02
2019-03-17T10:06:57.356Z,97482.33
2019-03-17T10:09:27.141Z,97473.12
2019-03-17T10:11:56.576Z,97473.30
2019-03-17T10:14:26.070Z,97469.24
2019-03-17T10:16:55.929Z,97466.52
2019-03-17T10:19:25.593Z,97466.89
2019-03-17T10:21:55.479Z,97454.82
2019-03-17T10:24:25.172Z,97459.42
2019-03-17T10:26:55.022Z,97450.89
2019-03-17T10:29:24.810Z,97454.72
2019-03-17T10:31:54.213Z,97452.16
2019-03-17T10:34:23.573Z,97448.94
2019-03-17T10:36:53.645Z,97443.89
2019-03-17T10:39:23.028Z,97438.40
2019-03-17T10:41:52.426Z,97458.66
2019-03-17T10:44:22.320Z,97450.45
2019-03-17T10:46:51.671Z,97447.17
2019-03-17T10:49:21.046Z,97447.03
2019-03-17T10:51:50.196Z,97449.00
2019-03-17T10:54:19.539Z,97444.27
2019-03-17T10:56:48.689Z,97451.58
2019-03-17T10:59:17.962Z,97448.34
2019-03-17T11:01:47.198Z,97438.44
2019-03-17T11:04:16.449Z,97438.56
2019-03-17T11:06:45.671Z,97437.57
2019-03-17T11:09:24.781Z,97438.56
2019-03-17T11:11:46.485Z,97446.97
2019-03-17T11:14:15.912Z,97439.78
2019-03-17T11:16:45.340Z,97443.89
2019-03-17T11:19:14.787Z,97443.80
2019-03-17T11:21:44.125Z,97449.80
2019-03-17T11:24:13.717Z,97467.22
2019-03-17T11:26:42.926Z,97458.69
2019-03-17T11:29:12.129Z,97452.19
2019-03-17T11:31:41.297Z,97456.69
2019-03-17T11:34:10.443Z,97444.06
2019-03-17T11:36:39.700Z,97444.86
2019-03-17T11:39:13.147Z,97468.95
2019-03-17T11:41:43.833Z,97444.06
2019-03-17T11:44:14.348Z,97448.93
2019-03-17T11:46:44.795Z,97444.71
2019-03-17T11:49:15.612Z,97465.28
2019-03-17T11:51:46.353Z,97445.26
2019-03-17T11:54:16.760Z,97448.23
2019-03-17T11:56:47.098Z,97450.58
2019-03-17T11:59:17.632Z,97435.53
2019-03-17T12:01:48.034Z,97459.69
2019-03-17T12:04:19.354Z,97443.47
2019-03-17T12:06:49.843Z,97470.63
2019-03-17T12:09:28.896Z,97469.38
2019-03-17T12:11:54.906Z,97479.17
2019-03-17T12:14:26.478Z,97487.40
2019-03-17T12:16:56.949Z,97491.49
2019-03-17T12:19:27.895Z,97494.20
2019-03-17T12:22:08.409Z,97506.66
2019-03-17T12:24:30.740Z,97506.84
2019-03-17T12:27:01.591Z,97496.50
2019-03-17T12:29:32.442Z,97506.86
2019-03-17T12:32:03.107Z,97507.61
2019-03-17T12:34:34.238Z,97504.69
2019-03-17T12:37:04.863Z,97510.06
2019-03-17T12:39:37.701Z,97517.63
2019-03-17T12:42:08.535Z,97521.64
2019-03-17T12:44:39.896Z,97515.23
2019-03-17T12:47:10.340Z,97518.38
2019-03-17T12:49:41.122Z,97520.33
2019-03-17T12:52:11.720Z,97515.73
2019-03-17T12:54:41.810Z,97529.05
2019-03-17T12:57:12.292Z,97535.48
2019-03-17T12:59:42.790Z,97560.05
2019-03-17T13:02:13.381Z,97552.73
2019-03-17T13:04:43.562Z,97578.83
2019-03-17T13:07:14.793Z,97605.89
2019-03-17T13:09:45.261Z,97608.22
2019-03-17T13:12:16.656Z,97615.23
2019-03-17T13:14:47.299Z,97659.27
2019-03-17T13:17:18.032Z,97653.67
2019-03-17T13:19:48.448Z,97679.59
2019-03-17T13:22:19.056Z,97675.09
2019-03-17T13:24:50.687Z,97678.44
2019-03-17T13:27:21.677Z,97670.23
2019-03-17T13:29:51.989Z,97679.72
2019-03-17T13:32:22.857Z,97687.08
2019-03-17T13:34:55.047Z,97686.75
2019-03-17T13:37:25.611Z,97722.06
2019-03-17T13:39:56.110Z,97735.84
2019-03-17T13:42:26.812Z,97754.92
2019-03-17T13:44:57.242Z,97762.88
2019-03-17T13:47:27.739Z,97792.50
2019-03-17T13:49:58.480Z,97792.97
2019-03-17T13:52:29.954Z,97812.98
2019-03-17T13:55:00.990Z,97840.80
2019-03-17T13:57:31.918Z,97832.81
2019-03-17T14:00:02.564Z,97843.34
2019-03-17T14:02:33.281Z,97856.05
2019-03-17T14:05:03.778Z,97871.04
2019-03-17T14:07:35.536Z,97863.80
2019-03-17T14:10:13.872Z,97874.51
2019-03-17T14:12:39.612Z,97877.83
2019-03-17T14:15:12.317Z,97885.32
2019-03-17T14:17:43.199Z,97877.16
2019-03-17T14:20:15.691Z,97875.84
2019-03-17T14:22:46.383Z,97886.88
2019-03-17T14:25:22.575Z,97882.74
2019-03-17T14:27:53.545Z,97890.96
2019-03-17T14:30:24.121Z,97890.50
2019-03-17T14:32:54.975Z,97882.76
2019-03-17T14:35:25.690Z,97886.21
2019-03-17T14:37:56.064Z,97901.75
2019-03-17T14:40:26.700Z,97879.56
2019-03-17T14:42:57.317Z,97888.11
2019-03-17T14:45:27.672Z,97879.81
2019-03-17T14:47:58.274Z,97870.20
2019-03-17T14:50:29.054Z,97869.95
2019-03-17T14:53:00.788Z,97868.50
2019-03-17T14:55:31.899Z,97858.89
2019-03-17T14:58:02.550Z,97862.94
2019-03-17T15:00:32.879Z,97871.56
2019-03-17T15:03:04.221Z,97870.64
2019-03-17T15:05:34.771Z,97867.60
2019-03-17T15:08:05.443Z,97866.51
2019-03-17T15:10:36.194Z,97880.86
2019-03-17T15:13:06.687Z,97883.97
2019-03-17T15:15:37.313Z,97877.20
2019-03-17T15:18:07.776Z,97876.48
2019-03-17T15:20:38.440Z,97873.28
2019-03-17T15:23:08.868Z,97883.13
2019-03-17T15:25:39.642Z,97886.09
2019-03-17T15:28:10.285Z,97888.70
2019-03-17T15:30:42.065Z,97884.06
2019-03-17T15:33:12.278Z,97881.83
2019-03-17T15:35:43.164Z,97876.23
2019-03-17T15:38:13.647Z,97881.11
2019-03-17T15:40:44.231Z,97882.41
2019-03-17T15:43:15.072Z,97898.55
2019-03-17T15:45:45.602Z,97894.16
2019-03-17T15:48:16.160Z,97909.83
2019-03-17T15:50:47.086Z,97925.62
2019-03-17T15:53:17.527Z,97935.81
2019-03-17T15:55:47.962Z,97938.80
2019-03-17T15:58:18.612Z,97931.65
2019-03-17T16:00:49.163Z,97944.70
2019-03-17T16:03:19.928Z,97956.36
2019-03-17T16:05:50.435Z,97959.10
2019-03-17T16:08:21.150Z,97972.97
2019-03-17T16:10:51.562Z,97976.88
2019-03-17T16:13:21.495Z,97968.12
2019-03-17T16:15:51.918Z,97976.08
2019-03-17T16:18:22.462Z,97977.73
2019-03-17T16:20:52.868Z,97988.17
2019-03-17T16:23:23.527Z,97983.07
2019-03-17T16:25:54.044Z,97979.03
2019-03-17T16:28:25.069Z,97980.58
2019-03-17T16:30:58.415Z,97987.92
2019-03-17T16:33:29.302Z,97992.55
2019-03-17T16:36:00.181Z,97998.37
2019-03-17T16:38:32.236Z,97997.44
2019-03-17T16:41:02.933Z,97991.96
2019-03-17T16:43:34.113Z,97999.67
2019-03-17T16:46:05.038Z,98005.14
2019-03-17T16:48:36.349Z,98017.02
2019-03-17T16:51:06.902Z,98021.53
2019-03-17T16:53:37.710Z,98022.58
2019-03-17T16:56:07.928Z,98032.09
2019-03-17T16:58:39.161Z,98042.63
2019-03-17T17:01:09.794Z,98056.41
2019-03-17T17:03:43.092Z,98053.45
2019-03-17T17:06:13.670Z,98052.02
2019-03-17T17:08:44.462Z,98049.62
2019-03-17T17:11:16.035Z,98057.89
2019-03-17T17:13:47.071Z,98052.41
2019-03-17T17:16:17.663Z,98072.16
2019-03-17T17:18:48.159Z,98067.02
2019-03-17T17:21:18.911Z,98074.07
2019-03-17T17:23:49.367Z,98051.84
2019-03-17T17:26:20.105Z,98045.45
2019-03-17T17:28:50.534Z,98033.83
2019-03-17T17:31:21.008Z,98043.88
2019-03-17T17:33:51.443Z,98054.05
2019-03-17T17:36:21.867Z,98065.59
2019-03-17T17:38:52.422Z,98087.66
2019-03-17T17:41:23.646Z,98093.59
2019-03-17T17:43:53.979Z,98097.02
2019-03-17T17:46:25.045Z,98109.70
2019-03-17T17:48:55.498Z,98119.74
2019-03-17T17:51:26.923Z,98120.73
2019-03-17T17:53:57.462Z,98119.70
2019-03-17T17:56:28.338Z,98116.38
2019-03-17T17:58:59.138Z,98118.17
2019-03-17T18:01:29.674Z,98126.65
2019-03-17T18:04:00.278Z,98110.34
2019-03-17T18:06:31.068Z,98112.88
2019-03-17T18:09:01.968Z,98132.81
2019-03-17T18:11:32.887Z,98128.73
2019-03-17T18:14:03.357Z,98120.77
2019-03-17T18:16:35.059Z,98128.27
2019-03-17T18:19:05.686Z,98132.41
2019-03-17T18:21:36.664Z,98117.34
2019-03-17T18:24:07.411Z,98141.52
2019-03-17T18:26:38.204Z,98143.78
2019-03-17T18:29:09.022Z,98150.91
2019-03-17T18:31:39.895Z,98147.34
2019-03-17T18:34:11.027Z,98163.80
2019-03-17T18:36:41.776Z,98186.20
2019-03-17T18:39:12.309Z,98207.38
2019-03-17T18:41:42.214Z,98209.53
2019-03-17T18:44:13.640Z,98187.13
2019-03-17T18:46:44.323Z,98189.13
2019-03-17T18:49:15.137Z,98198.83
2019-03-17T18:51:45.352Z,98180.41
2019-03-17T18:54:15.973Z,98176.42
2019-03-17T18:56:46.697Z,98203.77
2019-03-17T18:59:18.032Z,98205.11
2019-03-17T19:01:48.988Z,98195.45
2019-03-17T19:04:19.852Z,98205.22
2019-03-17T19:06:50.407Z,98208.63
2019-03-17T19:09:20.784Z,98258.05
2019-03-17T19:11:52.059Z,98272.04
2019-03-17T19:14:22.700Z,98265.97
2019-03-17T19:16:53.261Z,98267.69
2019-03-17T19:19:23.794Z,98264.45
2019-03-17T19:21:54.198Z,98253.88
2019-03-17T19:24:24.986Z,98246.59
2019-03-17T19:26:55.621Z,98244.90
2019-03-17T19:29:26.018Z,98262.58
2019-03-17T19:31:56.083Z,98279.12
2019-03-17T19:34:26.574Z,98285.17
2019-03-17T19:36:57.093Z,98274.47
2019-03-17T19:39:27.931Z,98281.89
2019-03-17T19:41:58.771Z,98287.16
2019-03-17T19:44:29.393Z,98310.88
2019-03-17T19:47:00.253Z,98309.73
2019-03-17T19:49:31.097Z,98301.29
2019-03-17T19:52:02.582Z,98298.52
2019-03-17T19:54:33.547Z,98284.45
2019-03-17T19:57:05.435Z,98318.86
2019-03-17T19:59:37.318Z,98329.69
2019-03-17T20:02:08.947Z,98325.45
2019-03-17T20:04:40.271Z,98308.09
2019-03-17T20:07:11.412Z,98313.26
2019-03-17T20:09:41.857Z,98323.67
2019-03-17T20:12:12.617Z,98336.30
2019-03-17T20:14:43.609Z,98360.45
2019-03-17T20:17:14.576Z,98349.02
2019-03-17T20:19:44.900Z,98352.30
2019-03-17T20:22:15.682Z,98363.56
2019-03-17T20:24:46.625Z,98367.52
2019-03-17T20:27:17.635Z,98365.59
2019-03-17T20:29:48.043Z,98363.05
2019-03-17T20:32:18.672Z,98363.78
2019-03-17T20:34:49.170Z,98369.45
2019-03-17T20:37:19.756Z,98371.73
2019-03-17T20:39:50.260Z,98374.32
2019-03-17T20:42:20.789Z,98372.10
2019-03-17T20:44:51.543Z,98387.63
2019-03-17T20:47:21.794Z,98400.77
2019-03-17T20:49:52.507Z,98395.84
2019-03-17T20:52:23.250Z,98415.59
2019-03-17T20:54:54.858Z,98418.69
2019-03-17T20:57:25.484Z,98426.76
2019-03-17T20:59:56.382Z,98430.42
2019-03-17T21:02:28.109Z,98435.55
2019-03-17T21:04:58.901Z,98426.61
2019-03-17T21:07:29.292Z,98455.92
2019-03-17T21:10:00.385Z,98455.31
2019-03-17T21:12:31.384Z,98464.55
2019-03-17T21:15:03.352Z,98467.60
2019-03-17T21:17:35.675Z,98466.47
2019-03-17T21:20:08.603Z,98450.76
2019-03-17T21:22:39.869Z,98463.58
2019-03-17T21:25:11.615Z,98475.02
2019-03-17T21:27:42.892Z,98463.71
2019-03-17T21:30:19.292Z,98460.79
2019-03-17T21:32:49.416Z,98471.86
2019-03-17T21:35:20.132Z,98472.89
2019-03-17T21:37:50.532Z,98471.78
2019-03-17T21:40:21.610Z,98472.73
2019-03-17T21:42:52.298Z,98477.21
2019-03-17T21:45:27.195Z,98472.56
2019-03-17T21:47:57.063Z,98479.63
2019-03-17T21:50:28.870Z,98477.19
2019-03-17T21:52:59.350Z,98482.78
2019-03-17T21:55:32.114Z,98487.14
2019-03-17T21:58:08.032Z,98492.45
2019-03-17T22:02:58.027Z,98508.27
2019-03-17T22:05:30.334Z,98517.08
2019-03-17T22:08:01.184Z,98525.39
2019-03-17T22:10:32.604Z,98528.84
2019-03-17T22:13:04.390Z,98537.55
2019-03-17T22:15:35.799Z,98536.22
2019-03-17T22:18:05.662Z,98534.14
2019-03-17T22:20:36.938Z,98530.58
2019-03-17T22:23:08.785Z,98536.08
2019-03-17T22:25:40.281Z,98541.83
2019-03-17T22:28:10.763Z,98536.58
2019-03-17T22:30:39.954Z,98533.27
2019-03-17T22:33:09.875Z,98535.03
2019-03-17T22:35:40.482Z,98533.98
2019-03-17T22:38:10.907Z,98534.38
2019-03-17T22:40:40.510Z,98531.25
2019-03-17T22:43:11.051Z,98551.28
2019-03-17T22:45:41.275Z,98553.95
2019-03-17T22:48:11.080Z,98552.16
2019-03-17T22:50:40.636Z,98552.03
2019-03-17T22:53:10.561Z,98561.64
2019-03-17T22:55:40.489Z,98554.79
2019-03-17T22:58:11.565Z,98563.12
2019-03-17T23:00:43.286Z,98568.94
2019-03-17T23:03:13.514Z,98563.12
2019-03-17T23:05:43.415Z,98563.22
2019-03-17T23:08:13.896Z,98564.64
2019-03-17T23:10:45.775Z,98575.01
2019-03-17T23:13:15.110Z,98574.88
2019-03-17T23:15:45.467Z,98569.78
2019-03-17T23:18:14.663Z,98576.73
2019-03-17T23:20:45.526Z,98571.13
2019-03-17T23:23:15.045Z,98570.36
2019-03-17T23:25:44.631Z,98566.79
2019-03-17T23:28:14.723Z,98580.61
2019-03-17T23:30:44.930Z,98579.77
2019-03-17T23:33:14.218Z,98585.60
2019-03-17T23:35:43.363Z,98581.34
2019-03-17T23:38:13.810Z,98584.66
2019-03-17T23:40:44.355Z,98575.47
2019-03-17T23:43:13.521Z,98572.00
2019-03-17T23:45:43.081Z,98574.78
2019-03-17T23:48:13.576Z,98577.25
2019-03-17T23:50:43.008Z,98577.39
2019-03-17T23:53:12.560Z,98589.97
2019-03-17T23:55:42.532Z,98579.16
2019-03-17T23:58:12.653Z,98582.00
